Machen, United Kingdom
Current Conditions -  °F | °C
As of 4:20 AM on Monday 22 Dec 2014 (Local Time) from EGFF Reporting Station
Overcast Overcast  
Wind Chill: 52°   Ceiling: 300
Heat Index: 52°   Visibility: 6mi
Dew Point: 52°   Wind: 18mph
Humidity: 100%   Direction: 260°W
Pressure: 30.12"   Gusts: NA
Location:  51.6°N, 3.14°W
Report Text: EGFF 220420Z AUTO 26016KT 9999 OVC003 11/11 Q1020
Loading
Personal Weather Stations






























Interactive Weather Map New forecast layout! Learn more

10-Day Weather Forecast

Advertisements
Track Severe Weather on mobile